Time;durP1;ratioP1;P1;durP2;ratioP2;P2;SDS_P1;SDS_P2;PMS_P1;PMS_P2;Temp;Humidity;BMP_temperature;BMP_pressure;BME280_temperature;BME280_humidity;BME280_pressure;Samples;Min_cycle;Max_cycle;Signal;HPM_P1;HPM_P2
2023/04/24 00:00:56;;;;;;;11.77;8.23;;;12.10;99.90;;;;;;5121109;27;20027;-69
2023/04/24 00:03:23;;;;;;;15.55;9.65;;;12.20;99.90;;;;;;5113443;27;20468;-70
2023/04/24 00:05:49;;;;;;;12.90;8.90;;;12.10;99.90;;;;;;5113313;27;20020;-69
2023/04/24 00:08:15;;;;;;;13.48;8.48;;;12.00;99.90;;;;;;5117054;27;20016;-70
2023/04/24 00:10:41;;;;;;;14.95;8.63;;;12.00;99.90;;;;;;5116529;27;20027;-69
2023/04/24 00:13:07;;;;;;;14.05;10.13;;;12.00;99.90;;;;;;5118432;27;20105;-70
2023/04/24 00:15:33;;;;;;;16.27;9.70;;;11.90;99.90;;;;;;5114908;27;20139;-70
2023/04/24 00:18:01;;;;;;;20.15;10.43;;;11.90;99.90;;;;;;5121860;27;20631;-70
2023/04/24 00:20:29;;;;;;;18.13;11.13;;;12.00;99.90;;;;;;5119509;27;20480;-70
2023/04/24 00:22:55;;;;;;;19.15;10.48;;;12.00;99.90;;;;;;5118998;27;20046;-70
2023/04/24 00:25:21;;;;;;;20.42;12.13;;;12.00;99.90;;;;;;5119560;27;20106;-70
2023/04/24 00:27:47;;;;;;;15.98;11.00;;;11.90;99.90;;;;;;5118256;27;20457;-70
2023/04/24 00:30:14;;;;;;;17.67;13.07;;;11.90;99.90;;;;;;5119273;27;20034;-70
2023/04/24 00:32:40;;;;;;;18.50;11.90;;;12.00;99.90;;;;;;5116847;27;20027;-70
2023/04/24 00:35:06;;;;;;;20.27;12.88;;;11.90;99.90;;;;;;5120674;27;20027;-70
2023/04/24 00:37:32;;;;;;;19.20;12.07;;;12.00;99.90;;;;;;5117006;27;20035;-69
2023/04/24 00:39:58;;;;;;;17.08;12.30;;;11.90;99.90;;;;;;5120432;27;20011;-69
2023/04/24 00:42:24;;;;;;;19.95;11.70;;;11.90;99.90;;;;;;5121160;27;20379;-70
2023/04/24 00:44:50;;;;;;;17.00;11.88;;;11.90;99.90;;;;;;5116459;27;20055;-70
2023/04/24 00:47:16;;;;;;;24.20;13.07;;;12.00;99.90;;;;;;5115168;27;20039;-70
2023/04/24 00:49:42;;;;;;;21.77;12.70;;;12.00;99.90;;;;;;5115452;27;20031;-70
2023/04/24 00:52:08;;;;;;;17.95;13.10;;;11.90;99.90;;;;;;5122041;27;20046;-70
2023/04/24 00:54:35;;;;;;;19.77;12.10;;;11.90;99.90;;;;;;5118386;27;20027;-70
2023/04/24 00:57:03;;;;;;;21.67;13.27;;;12.00;99.90;;;;;;5116121;27;20470;-69
2023/04/24 00:59:29;;;;;;;23.27;13.60;;;11.90;99.90;;;;;;5122514;27;20030;-70
2023/04/24 01:01:55;;;;;;;20.30;13.20;;;12.00;99.90;;;;;;5116488;27;20488;-69
2023/04/24 01:04:21;;;;;;;23.60;13.77;;;11.90;99.90;;;;;;5119944;27;20011;-70
2023/04/24 01:06:49;;;;;;;22.38;14.48;;;12.00;99.90;;;;;;5119276;27;20029;-69
2023/04/24 01:09:17;;;;;;;20.77;13.75;;;12.00;99.90;;;;;;5114479;27;20020;-70
2023/04/24 01:11:43;;;;;;;24.73;14.15;;;12.00;99.90;;;;;;5120269;27;20493;-69
2023/04/24 01:14:09;;;;;;;22.77;15.50;;;11.90;99.90;;;;;;5120127;27;20035;-70
2023/04/24 01:16:38;;;;;;;22.13;15.27;;;11.90;99.90;;;;;;5126976;27;20034;-69
2023/04/24 01:19:05;;;;;;;23.02;14.43;;;11.90;99.90;;;;;;5124688;27;20490;-69
2023/04/24 01:21:36;;;;;;;24.70;15.45;;;11.90;99.90;;;;;;5130425;27;20094;-69
2023/04/24 01:24:03;;;;;;;27.05;16.55;;;11.80;99.90;;;;;;5128893;27;20047;-69
2023/04/24 01:26:29;;;;;;;29.73;17.88;;;11.80;99.90;;;;;;5125764;27;20003;-69
2023/04/24 01:28:55;;;;;;;28.55;15.70;;;11.80;99.90;;;;;;5126516;27;20399;-69
2023/04/24 01:31:21;;;;;;;26.58;17.23;;;11.70;99.90;;;;;;5119194;27;20387;-69
2023/04/24 01:33:47;;;;;;;23.88;15.93;;;11.60;99.90;;;;;;5132226;27;20038;-69
2023/04/24 01:36:14;;;;;;;28.10;16.60;;;11.60;99.90;;;;;;5131639;27;20130;-69
2023/04/24 01:38:39;;;;;;;32.55;19.83;;;11.60;99.90;;;;;;5124474;27;20023;-69
2023/04/24 01:41:05;;;;;;;25.60;17.05;;;11.70;99.90;;;;;;5122436;27;20026;-69
2023/04/24 01:43:32;;;;;;;38.03;18.27;;;11.70;99.90;;;;;;5121268;27;20031;-69
2023/04/24 01:45:57;;;;;;;27.73;18.02;;;11.80;99.90;;;;;;5125398;27;20034;-69
2023/04/24 01:48:23;;;;;;;35.90;18.40;;;11.70;99.90;;;;;;5124416;27;20023;-70
2023/04/24 01:50:49;;;;;;;26.38;17.70;;;11.70;99.90;;;;;;5121961;27;20019;-69
2023/04/24 01:53:15;;;;;;;29.73;17.85;;;11.70;99.90;;;;;;5124517;27;20463;-69
2023/04/24 01:55:41;;;;;;;24.50;18.95;;;11.70;99.90;;;;;;5128895;27;20027;-69
2023/04/24 01:58:07;;;;;;;30.95;18.42;;;11.70;99.90;;;;;;5133523;27;20467;-69
2023/04/24 02:00:33;;;;;;;25.98;17.30;;;11.70;99.90;;;;;;5125869;27;20031;-69
2023/04/24 02:02:58;;;;;;;23.80;16.70;;;11.70;99.90;;;;;;5126731;27;20036;-69
2023/04/24 02:05:24;;;;;;;30.33;17.02;;;11.60;99.90;;;;;;5129991;27;20023;-69
2023/04/24 02:07:50;;;;;;;27.67;18.42;;;11.70;99.90;;;;;;5123851;27;20347;-69
2023/04/24 02:10:15;;;;;;;29.73;17.42;;;11.60;99.90;;;;;;5119139;27;20032;-69
2023/04/24 02:12:41;;;;;;;29.00;17.17;;;11.70;99.90;;;;;;5126062;27;20079;-70
2023/04/24 02:15:07;;;;;;;28.73;17.13;;;11.60;99.90;;;;;;5121624;27;20032;-69
2023/04/24 02:17:33;;;;;;;25.92;17.70;;;11.70;99.90;;;;;;5126807;27;20479;-69
2023/04/24 02:19:58;;;;;;;26.45;16.92;;;11.70;99.90;;;;;;5118413;27;20016;-69
2023/04/24 02:22:24;;;;;;;26.92;17.80;;;11.60;99.90;;;;;;5125243;27;20383;-69
2023/04/24 02:24:50;;;;;;;26.80;17.63;;;11.50;99.90;;;;;;5120999;27;20016;-69
2023/04/24 02:27:16;;;;;;;28.58;16.45;;;11.50;99.90;;;;;;5120200;27;20410;-70
2023/04/24 02:29:41;;;;;;;25.88;16.50;;;11.50;99.90;;;;;;5123271;27;20019;-69
2023/04/24 02:32:11;;;;;;;25.63;16.05;;;11.50;99.90;;;;;;5122779;27;20023;-69
2023/04/24 02:34:36;;;;;;;25.10;16.85;;;11.50;99.90;;;;;;5123586;27;20044;-69
2023/04/24 02:37:02;;;;;;;25.65;17.52;;;11.60;99.90;;;;;;5126527;27;20436;-69
2023/04/24 02:39:28;;;;;;;26.52;17.55;;;11.60;99.90;;;;;;5120183;27;20361;-69
2023/04/24 02:41:53;;;;;;;24.48;16.00;;;11.50;99.90;;;;;;5125532;27;20560;-69
2023/04/24 02:44:19;;;;;;;26.25;16.17;;;11.60;99.90;;;;;;5131781;27;20094;-69
2023/04/24 02:46:45;;;;;;;27.23;16.08;;;11.50;99.90;;;;;;5128740;27;20041;-69
2023/04/24 02:49:11;;;;;;;23.10;15.70;;;11.50;99.90;;;;;;5123047;27;20035;-70
2023/04/24 02:51:40;;;;;;;25.63;16.27;;;11.50;99.90;;;;;;5125079;27;20051;-69
2023/04/24 02:54:07;;;;;;;22.98;16.55;;;11.50;99.90;;;;;;5120252;27;20032;-69
2023/04/24 02:56:33;;;;;;;24.58;14.43;;;11.40;99.90;;;;;;5128730;27;20074;-69
2023/04/24 02:58:59;;;;;;;25.05;15.55;;;11.40;99.90;;;;;;5125266;27;20020;-70
2023/04/24 03:01:25;;;;;;;21.30;15.88;;;11.40;99.90;;;;;;5124824;27;20094;-69
2023/04/24 03:03:50;;;;;;;25.10;14.95;;;11.30;99.90;;;;;;5130017;27;20143;-69
2023/04/24 03:06:16;;;;;;;25.88;15.60;;;11.40;99.90;;;;;;5122086;27;20035;-70
2023/04/24 03:08:42;;;;;;;19.40;13.88;;;11.40;99.90;;;;;;5122389;27;20015;-69
2023/04/24 03:11:07;;;;;;;21.73;14.02;;;11.40;99.90;;;;;;5120088;27;20043;-70
2023/04/24 03:13:33;;;;;;;22.38;14.73;;;11.30;99.90;;;;;;5120897;27;20032;-69
2023/04/24 03:15:59;;;;;;;28.05;14.70;;;11.40;99.90;;;;;;5125210;27;20046;-69
2023/04/24 03:18:25;;;;;;;20.63;13.70;;;11.40;99.90;;;;;;5119784;27;20357;-69
2023/04/24 03:20:51;;;;;;;18.95;13.50;;;11.30;99.90;;;;;;5124147;27;20349;-69
2023/04/24 03:23:16;;;;;;;20.48;13.30;;;11.40;99.90;;;;;;5121905;27;20028;-69
2023/04/24 03:25:42;;;;;;;18.13;12.90;;;11.40;99.90;;;;;;5124296;27;20523;-70
2023/04/24 03:28:08;;;;;;;20.98;13.07;;;11.40;99.90;;;;;;5121815;27;20042;-69
2023/04/24 03:30:34;;;;;;;23.75;14.13;;;11.40;99.90;;;;;;5125739;27;20026;-69
2023/04/24 03:33:00;;;;;;;18.70;12.18;;;11.40;99.90;;;;;;5117707;27;20379;-69
2023/04/24 03:35:26;;;;;;;21.27;11.38;;;11.40;99.90;;;;;;5128731;27;20039;-69
2023/04/24 03:37:51;;;;;;;16.23;11.23;;;11.30;99.90;;;;;;5127521;27;20099;-69
2023/04/24 03:40:17;;;;;;;17.88;12.60;;;11.30;99.90;;;;;;5129891;27;20475;-70
2023/04/24 03:42:43;;;;;;;16.80;12.15;;;11.30;99.90;;;;;;5129339;27;20465;-70
2023/04/24 03:45:09;;;;;;;21.27;11.93;;;11.30;99.90;;;;;;5130649;27;20070;-69
2023/04/24 03:47:35;;;;;;;13.82;11.32;;;11.20;99.90;;;;;;5126710;27;20023;-69
2023/04/24 03:50:01;;;;;;;15.43;10.65;;;11.10;99.90;;;;;;5128959;27;20019;-69
2023/04/24 03:52:27;;;;;;;20.15;12.90;;;11.20;99.90;;;;;;5126328;27;20091;-69
2023/04/24 03:54:53;;;;;;;15.00;11.57;;;11.20;99.90;;;;;;5119973;27;20460;-69
2023/04/24 03:57:18;;;;;;;15.80;11.18;;;11.20;99.90;;;;;;5135578;27;20463;-69
2023/04/24 03:59:44;;;;;;;13.55;11.68;;;11.20;99.90;;;;;;5128441;27;20464;-69
2023/04/24 04:02:10;;;;;;;17.30;10.27;;;11.10;99.90;;;;;;5129109;27;20023;-69
2023/04/24 04:04:35;;;;;;;15.25;10.38;;;11.10;99.90;;;;;;5129518;27;20118;-69
2023/04/24 04:07:02;;;;;;;17.17;11.27;;;11.20;99.90;;;;;;5129355;27;20058;-69
2023/04/24 04:09:28;;;;;;;16.33;10.98;;;11.20;99.90;;;;;;5128219;27;20047;-69
2023/04/24 04:11:54;;;;;;;15.60;11.35;;;11.30;99.90;;;;;;5129985;27;20061;-69
2023/04/24 04:14:21;;;;;;;15.77;10.75;;;11.20;99.90;;;;;;5126763;27;20467;-69
2023/04/24 04:16:46;;;;;;;16.48;12.00;;;11.20;99.90;;;;;;5127797;27;20380;-70
2023/04/24 04:19:12;;;;;;;15.68;12.18;;;11.10;99.90;;;;;;5133222;27;20087;-71
2023/04/24 04:21:38;;;;;;;18.42;13.55;;;11.10;99.90;;;;;;5125074;27;20372;-71
2023/04/24 04:24:05;;;;;;;17.70;13.02;;;11.10;99.90;;;;;;5124445;27;20039;-71
2023/04/24 04:26:32;;;;;;;16.60;12.45;;;11.00;99.90;;;;;;5121366;27;20023;-70
2023/04/24 04:29:00;;;;;;;17.52;12.73;;;11.10;99.90;;;;;;5127733;27;20016;-70
2023/04/24 04:31:26;;;;;;;18.80;13.73;;;11.10;99.90;;;;;;5123529;27;20491;-71
2023/04/24 04:33:51;;;;;;;20.00;13.57;;;11.10;99.90;;;;;;5126516;27;20211;-71
2023/04/24 04:36:17;;;;;;;19.45;13.90;;;11.10;99.90;;;;;;5124880;27;20039;-70
2023/04/24 04:38:44;;;;;;;17.23;12.85;;;11.00;99.90;;;;;;5126750;27;20768;-70
2023/04/24 04:41:10;;;;;;;24.73;13.98;;;11.00;99.90;;;;;;5129750;27;20024;-70
2023/04/24 04:43:36;;;;;;;17.05;12.40;;;11.10;99.90;;;;;;5118857;27;20534;-70
2023/04/24 04:46:03;;;;;;;16.75;12.35;;;11.00;99.90;;;;;;5129346;27;20141;-70
2023/04/24 04:48:31;;;;;;;18.15;13.43;;;10.90;99.90;;;;;;5129604;27;20039;-71
2023/04/24 04:50:57;;;;;;;17.42;12.52;;;10.90;99.90;;;;;;5124446;27;20031;-71
2023/04/24 04:53:22;;;;;;;18.95;12.32;;;10.90;99.90;;;;;;5132463;27;20030;-71
2023/04/24 04:55:48;;;;;;;20.48;13.60;;;10.90;99.90;;;;;;5121983;27;20036;-71
2023/04/24 04:58:14;;;;;;;20.10;13.32;;;10.90;99.90;;;;;;5114861;28;20026;-71
2023/04/24 05:00:41;;;;;;;19.23;13.43;;;10.90;99.90;;;;;;5113899;27;20038;-71
2023/04/24 05:03:07;;;;;;;19.17;13.05;;;10.90;99.90;;;;;;5114206;28;20026;-70
2023/04/24 05:05:32;;;;;;;18.40;12.52;;;10.90;99.90;;;;;;5114044;28;20031;-70
2023/04/24 05:07:58;;;;;;;14.95;12.13;;;10.90;99.90;;;;;;5114449;28;20073;-71
2023/04/24 05:10:24;;;;;;;16.08;11.40;;;10.90;99.90;;;;;;5113876;28;20034;-71
2023/04/24 05:12:49;;;;;;;14.40;11.02;;;10.90;99.90;;;;;;5112450;28;20531;-70
2023/04/24 05:15:15;;;;;;;12.93;10.80;;;11.00;99.90;;;;;;5113916;28;20031;-70
2023/04/24 05:17:41;;;;;;;13.20;8.60;;;10.90;99.90;;;;;;5113346;28;20480;-70
2023/04/24 05:20:07;;;;;;;14.73;8.65;;;10.80;99.90;;;;;;5114143;28;20045;-70
2023/04/24 05:22:32;;;;;;;14.23;8.68;;;10.80;99.90;;;;;;5113820;28;20067;-70
2023/04/24 05:24:58;;;;;;;13.10;7.75;;;10.70;99.90;;;;;;5112936;28;20472;-70
2023/04/24 05:27:24;;;;;;;8.82;6.97;;;10.70;99.90;;;;;;5112764;28;20110;-70
2023/04/24 05:29:51;;;;;;;6.32;5.68;;;10.60;99.90;;;;;;5114328;28;20016;-70
2023/04/24 05:32:16;;;;;;;16.38;14.60;;;10.60;99.90;;;;;;5112706;28;20035;-70
2023/04/24 05:34:42;;;;;;;8.98;6.50;;;10.70;99.90;;;;;;5113612;27;20027;-70
2023/04/24 05:37:09;;;;;;;7.90;5.82;;;10.70;99.90;;;;;;5113372;28;20054;-71
2023/04/24 05:39:36;;;;;;;6.93;5.18;;;10.60;99.90;;;;;;5112307;28;20023;-70
2023/04/24 05:42:04;;;;;;;7.78;5.13;;;10.50;99.90;;;;;;5113564;27;20110;-70
2023/04/24 05:44:31;;;;;;;7.18;4.88;;;10.60;99.90;;;;;;5113554;28;20028;-69
2023/04/24 05:46:56;;;;;;;8.13;4.95;;;10.60;99.90;;;;;;5113935;28;20037;-70
2023/04/24 05:49:23;;;;;;;4.53;3.70;;;10.60;99.90;;;;;;5113714;28;20095;-70
2023/04/24 05:51:48;;;;;;;4.30;3.80;;;10.60;99.90;;;;;;5118562;27;20109;-69
2023/04/24 05:54:14;;;;;;;4.97;3.53;;;10.70;99.90;;;;;;5130924;27;20087;-70
2023/04/24 05:56:40;;;;;;;5.20;2.83;;;10.70;99.90;;;;;;5133976;27;20038;-70
2023/04/24 05:59:07;;;;;;;5.03;2.97;;;10.50;99.90;;;;;;5133758;27;20027;-69
2023/04/24 06:01:33;;;;;;;5.72;2.17;;;10.50;99.90;;;;;;5131296;27;20019;-70
2023/04/24 06:03:59;;;;;;;2.75;2.00;;;10.50;99.90;;;;;;5131871;27;20106;-70
2023/04/24 06:06:25;;;;;;;4.15;2.10;;;10.50;99.90;;;;;;5132908;27;20214;-69
2023/04/24 06:08:51;;;;;;;5.20;1.90;;;10.40;99.90;;;;;;5131295;27;20031;-69
2023/04/24 06:11:17;;;;;;;2.63;1.85;;;10.40;99.90;;;;;;5132467;27;20475;-69
2023/04/24 06:13:42;;;;;;;3.25;1.77;;;10.40;99.90;;;;;;5133263;27;20038;-68
2023/04/24 06:16:08;;;;;;;3.65;1.85;;;10.40;99.90;;;;;;5128964;27;20072;-69
2023/04/24 06:18:34;;;;;;;3.63;2.53;;;10.30;99.90;;;;;;5132181;27;20020;-70
2023/04/24 06:21:00;;;;;;;5.95;2.95;;;10.30;99.90;;;;;;5134118;27;20033;-69
2023/04/24 06:23:26;;;;;;;9.38;3.30;;;10.30;99.90;;;;;;5131751;27;20020;-69
2023/04/24 06:25:51;;;;;;;4.38;2.83;;;10.30;99.90;;;;;;5132600;27;20031;-69
2023/04/24 06:28:17;;;;;;;3.00;2.70;;;10.30;99.90;;;;;;5133227;27;20429;-69
2023/04/24 06:30:43;;;;;;;4.60;3.22;;;10.30;99.90;;;;;;5132785;27;20035;-70
2023/04/24 06:33:09;;;;;;;8.32;4.30;;;10.20;99.90;;;;;;5121393;27;20019;-69
2023/04/24 06:35:36;;;;;;;7.60;4.35;;;10.20;99.90;;;;;;5133419;27;20106;-69
2023/04/24 06:38:01;;;;;;;4.38;3.97;;;10.20;99.90;;;;;;5133801;27;20027;-68
2023/04/24 06:40:27;;;;;;;6.53;4.40;;;10.20;99.90;;;;;;5133029;27;20127;-69
2023/04/24 06:42:53;;;;;;;7.95;5.47;;;10.30;99.90;;;;;;5132657;27;20479;-68
2023/04/24 06:45:18;;;;;;;9.38;5.40;;;10.30;99.90;;;;;;5133545;27;20019;-69
2023/04/24 06:47:44;;;;;;;7.38;5.05;;;10.20;99.90;;;;;;5133396;27;20361;-68
2023/04/24 06:50:11;;;;;;;6.70;5.40;;;10.20;99.90;;;;;;5133261;27;20483;-68
2023/04/24 06:52:37;;;;;;;8.68;6.25;;;10.20;99.90;;;;;;5133693;27;20510;-69
2023/04/24 06:55:03;;;;;;;8.63;5.82;;;10.20;99.90;;;;;;5133336;27;20031;-68
2023/04/24 06:57:29;;;;;;;7.95;6.32;;;10.20;99.90;;;;;;5133049;27;20023;-68
2023/04/24 06:59:55;;;;;;;10.82;6.40;;;10.20;99.90;;;;;;5133601;27;20072;-68
2023/04/24 07:02:21;;;;;;;11.85;7.40;;;10.20;99.90;;;;;;5133378;27;20046;-69
2023/04/24 07:04:47;;;;;;;13.82;8.90;;;10.30;99.90;;;;;;5133377;28;20128;-69
2023/04/24 07:07:14;;;;;;;13.77;9.35;;;10.20;99.90;;;;;;5132877;27;20019;-69
2023/04/24 07:09:42;;;;;;;15.90;9.25;;;10.40;99.90;;;;;;5137520;27;20068;-69
2023/04/24 07:12:10;;;;;;;13.82;9.77;;;10.30;99.90;;;;;;5136104;27;20027;-69
2023/04/24 07:14:36;;;;;;;13.25;8.77;;;10.30;99.90;;;;;;5137381;27;20027;-68
2023/04/24 07:17:06;;;;;;;11.18;8.68;;;10.30;99.90;;;;;;5133587;27;20031;-68
2023/04/24 07:19:33;;;;;;;12.48;9.00;;;10.30;99.90;;;;;;5135946;27;20391;-70
2023/04/24 07:21:59;;;;;;;15.65;10.63;;;10.30;99.90;;;;;;5134728;27;20376;-69
2023/04/24 07:24:25;;;;;;;14.40;10.93;;;10.30;99.90;;;;;;5127950;27;20024;-69
2023/04/24 07:26:52;;;;;;;19.08;10.40;;;10.40;99.90;;;;;;5115820;28;20081;-69
2023/04/24 07:29:19;;;;;;;11.60;8.80;;;10.40;99.90;;;;;;5119113;27;20026;-68
2023/04/24 07:31:45;;;;;;;13.90;8.75;;;10.30;99.90;;;;;;5136677;27;20102;-68
2023/04/24 07:34:11;;;;;;;20.23;9.90;;;10.30;99.90;;;;;;5136707;27;20119;-69
2023/04/24 07:36:38;;;;;;;14.23;8.75;;;10.20;99.90;;;;;;5126129;27;20042;-69
2023/04/24 07:39:04;;;;;;;14.48;8.38;;;10.30;99.90;;;;;;5116544;28;20019;-69
2023/04/24 07:41:30;;;;;;;14.35;7.65;;;10.20;99.90;;;;;;5114389;27;20035;-68
2023/04/24 07:43:56;;;;;;;12.05;7.55;;;10.20;99.90;;;;;;5116242;28;20384;-69
2023/04/24 07:46:23;;;;;;;16.30;8.85;;;10.30;99.90;;;;;;5116170;28;20031;-68
2023/04/24 07:48:48;;;;;;;13.40;8.10;;;10.30;99.90;;;;;;5114876;28;20028;-68
2023/04/24 07:51:15;;;;;;;15.98;7.65;;;10.30;99.90;;;;;;5115765;27;20012;-70
2023/04/24 07:53:41;;;;;;;18.48;8.48;;;10.30;99.90;;;;;;5116068;28;20096;-67
2023/04/24 07:56:07;;;;;;;19.50;9.60;;;10.40;99.90;;;;;;5126163;27;20106;-68
2023/04/24 07:58:33;;;;;;;16.52;9.23;;;10.50;99.90;;;;;;5134610;27;20662;-68
2023/04/24 08:00:59;;;;;;;14.75;9.23;;;10.50;99.90;;;;;;5136288;27;20026;-68
2023/04/24 08:03:25;;;;;;;17.40;9.10;;;10.50;99.90;;;;;;5130893;27;20103;-70
2023/04/24 08:05:50;;;;;;;16.50;8.82;;;10.40;99.90;;;;;;5124390;27;20383;-68
2023/04/24 08:08:17;;;;;;;20.02;9.50;;;10.50;99.90;;;;;;5132412;27;20029;-68
2023/04/24 08:10:43;;;;;;;20.48;8.38;;;10.60;99.90;;;;;;5132194;27;20471;-68
2023/04/24 08:13:08;;;;;;;23.33;10.15;;;10.50;99.90;;;;;;5136061;27;20027;-68
2023/04/24 08:15:34;;;;;;;20.65;9.73;;;10.60;99.90;;;;;;5135378;27;20348;-69
2023/04/24 08:18:00;;;;;;;24.40;10.30;;;10.70;99.90;;;;;;5134289;27;20534;-68
2023/04/24 08:20:26;;;;;;;22.52;9.68;;;10.70;99.90;;;;;;5099307;27;20645;-70
2023/04/24 08:22:52;;;;;;;17.63;9.20;;;10.60;99.90;;;;;;5117625;27;20098;-68
2023/04/24 08:25:19;;;;;;;23.55;10.00;;;10.70;99.90;;;;;;5118326;27;20361;-68
2023/04/24 08:27:44;;;;;;;20.17;9.40;;;10.80;99.90;;;;;;5119369;27;20471;-69
2023/04/24 08:30:10;;;;;;;16.70;8.20;;;10.80;99.90;;;;;;5118113;27;20027;-68
2023/04/24 08:32:37;;;;;;;22.67;9.30;;;10.80;99.90;;;;;;5118252;27;20379;-69
2023/04/24 08:35:03;;;;;;;20.17;8.27;;;10.80;99.90;;;;;;5114631;27;20016;-69
2023/04/24 08:37:29;;;;;;;17.35;8.20;;;10.90;99.90;;;;;;5121967;27;20052;-68
2023/04/24 08:39:55;;;;;;;19.20;8.25;;;10.90;99.90;;;;;;5116903;27;20455;-68
2023/04/24 08:42:21;;;;;;;18.15;7.65;;;11.00;99.90;;;;;;5119513;27;20035;-68
2023/04/24 08:44:49;;;;;;;20.42;7.97;;;11.10;99.90;;;;;;5116134;27;20057;-68
2023/04/24 08:47:15;;;;;;;17.73;8.10;;;11.00;99.90;;;;;;5118235;27;20030;-67
2023/04/24 08:49:42;;;;;;;15.18;7.40;;;11.10;99.90;;;;;;5121376;27;20015;-67
2023/04/24 08:52:08;;;;;;;12.45;7.03;;;11.10;99.90;;;;;;5117341;27;20015;-69
2023/04/24 08:54:38;;;;;;;20.20;7.63;;;11.10;99.90;;;;;;5117724;27;20023;-68
2023/04/24 08:57:07;;;;;;;22.70;8.10;;;11.10;99.90;;;;;;5119295;27;20432;-69
2023/04/24 08:59:33;;;;;;;15.55;7.15;;;11.10;99.90;;;;;;5114262;27;20408;-69
2023/04/24 09:02:00;;;;;;;17.13;7.00;;;11.00;99.90;;;;;;5119835;27;20102;-67
2023/04/24 09:04:27;;;;;;;12.65;5.72;;;11.10;99.90;;;;;;5118347;27;20023;-68
2023/04/24 09:06:56;;;;;;;18.42;5.68;;;11.10;99.90;;;;;;5123136;27;20023;-69
2023/04/24 09:09:23;;;;;;;18.77;6.25;;;11.00;99.90;;;;;;5112069;27;20500;-69
2023/04/24 09:11:51;;;;;;;15.63;5.90;;;10.90;99.90;;;;;;5113935;27;20035;-69
2023/04/24 09:14:17;;;;;;;19.25;5.78;;;10.90;99.90;;;;;;5116685;27;20027;-68
2023/04/24 09:16:43;;;;;;;15.10;5.78;;;11.00;99.90;;;;;;5120324;27;20043;-70
2023/04/24 09:19:09;;;;;;;18.23;6.22;;;10.80;99.90;;;;;;5119232;27;20036;-68
2023/04/24 09:21:35;;;;;;;15.77;6.55;;;11.00;99.90;;;;;;5114206;27;20031;-68
2023/04/24 09:24:04;;;;;;;20.50;6.20;;;10.90;99.90;;;;;;5114106;27;20024;-70
2023/04/24 09:26:31;;;;;;;18.05;6.05;;;10.90;99.90;;;;;;5120408;27;20020;-68
2023/04/24 09:28:58;;;;;;;17.48;6.85;;;10.90;99.90;;;;;;5121754;27;20897;-69
2023/04/24 09:31:26;;;;;;;13.23;6.05;;;11.00;99.90;;;;;;5113925;27;20016;-68
2023/04/24 09:33:55;;;;;;;20.10;6.75;;;11.10;99.90;;;;;;5121784;27;20069;-69
2023/04/24 09:36:39;;;;;;;20.90;6.90;;;11.10;99.90;;;;;;5116474;27;20028;-68
2023/04/24 09:39:13;;;;;;;18.00;5.30;;;11.30;99.90;;;;;;5115664;27;20024;-68
2023/04/24 09:41:50;;;;;;;18.25;5.93;;;11.30;99.90;;;;;;5116255;27;20598;-68
2023/04/24 09:44:21;;;;;;;17.75;5.80;;;11.30;99.90;;;;;;5119219;27;20083;-69
2023/04/24 09:46:59;;;;;;;16.25;5.30;;;11.30;99.90;;;;;;5116692;27;20019;-69
2023/04/24 09:49:30;;;;;;;19.95;5.20;;;11.40;99.90;;;;;;5117572;27;20015;-70
2023/04/24 09:52:07;;;;;;;19.88;5.13;;;11.40;99.90;;;;;;5115006;27;20027;-68
2023/04/24 09:54:33;;;;;;;23.02;4.93;;;11.50;99.90;;;;;;5112279;27;20068;-69
2023/04/24 09:57:00;;;;;;;16.30;4.18;;;11.60;99.90;;;;;;5124776;27;20027;-70
2023/04/24 09:59:26;;;;;;;17.52;4.72;;;11.70;99.90;;;;;;5121767;27;20023;-69
2023/04/24 10:01:52;;;;;;;13.50;4.15;;;11.90;99.90;;;;;;5128099;27;20015;-69
2023/04/24 10:04:20;;;;;;;16.65;3.90;;;11.80;99.90;;;;;;5128113;27;20408;-68
2023/04/24 10:06:48;;;;;;;14.02;4.30;;;11.80;99.90;;;;;;5125455;27;20011;-68
2023/04/24 10:09:15;;;;;;;9.23;3.75;;;11.80;99.90;;;;;;5125513;27;20106;-69
2023/04/24 10:11:46;;;;;;;15.77;4.88;;;11.80;99.90;;;;;;5127365;27;20039;-69
2023/04/24 10:14:20;;;;;;;12.02;4.07;;;12.00;99.90;;;;;;5125195;27;20027;-69
2023/04/24 10:16:49;;;;;;;20.02;5.13;;;12.00;99.90;;;;;;5125329;27;20054;-69
2023/04/24 10:19:18;;;;;;;27.30;5.10;;;12.00;99.90;;;;;;5127297;27;20029;-68
2023/04/24 10:21:47;;;;;;;28.17;5.03;;;12.00;99.90;;;;;;5126329;27;20066;-70
2023/04/24 10:24:21;;;;;;;12.82;4.43;;;12.00;99.90;;;;;;5124753;27;20427;-69
2023/04/24 10:26:48;;;;;;;14.38;3.83;;;12.10;99.90;;;;;;5127287;27;20023;-68
2023/04/24 10:29:16;;;;;;;11.00;3.33;;;12.00;99.90;;;;;;5125432;27;20107;-68
2023/04/24 10:31:45;;;;;;;11.93;3.45;;;12.10;99.90;;;;;;5127011;27;20020;-68
2023/04/24 10:34:11;;;;;;;10.98;3.05;;;12.10;99.90;;;;;;5125731;27;20031;-70
2023/04/24 10:36:41;;;;;;;12.40;2.83;;;12.30;99.90;;;;;;5127180;27;20058;-68
2023/04/24 10:39:11;;;;;;;9.63;3.28;;;12.40;99.90;;;;;;5126470;27;20037;-69
2023/04/24 10:41:38;;;;;;;9.93;2.90;;;12.60;99.90;;;;;;5125831;27;20031;-69
2023/04/24 10:44:06;;;;;;;7.13;2.75;;;12.60;99.90;;;;;;5124705;28;20038;-69
2023/04/24 10:46:32;;;;;;;7.57;2.38;;;12.70;99.90;;;;;;5125605;28;20436;-70
2023/04/24 10:48:58;;;;;;;3.47;1.73;;;12.50;99.90;;;;;;5126454;28;20521;-69
2023/04/24 10:51:42;;;;;;;6.63;1.70;;;12.60;99.90;;;;;;5124662;27;20035;-70
2023/04/24 10:54:35;;;;;;;4.80;1.58;;;12.60;99.90;;;;;;5123035;28;20035;-70
2023/04/24 10:57:20;;;;;;;;;;;12.50;99.90;;;;;;5127181;28;20039;-69
2023/04/24 10:59:47;;;;;;;6.82;1.50;;;12.50;99.90;;;;;;5125834;28;19990;-69
2023/04/24 11:02:16;;;;;;;3.75;1.70;;;12.60;99.90;;;;;;5115580;28;20035;-70
2023/04/24 11:04:46;;;;;;;8.00;1.92;;;12.60;99.90;;;;;;5127483;27;20019;-70
2023/04/24 11:07:12;;;;;;;3.15;1.65;;;12.80;99.90;;;;;;5127411;27;20546;-69
2023/04/24 11:09:40;;;;;;;6.18;1.88;;;12.80;99.90;;;;;;5127238;28;20023;-70
2023/04/24 11:12:13;;;;;;;4.43;1.70;;;12.80;99.90;;;;;;5127528;27;20027;-70
2023/04/24 11:14:57;;;;;;;6.22;1.70;;;12.80;99.90;;;;;;5124663;27;20023;-70
2023/04/24 11:17:40;;;;;;;5.78;1.70;;;13.00;99.90;;;;;;5123596;28;20059;-70
2023/04/24 11:20:09;;;;;;;6.60;1.52;;;13.10;99.90;;;;;;5113208;28;23222;-70
2023/04/24 11:22:36;;;;;;;6.85;1.60;;;13.10;99.90;;;;;;5117848;28;20024;-71
2023/04/24 11:25:06;;;;;;;4.30;1.60;;;13.00;99.90;;;;;;5119919;28;20396;-71
2023/04/24 11:27:40;;;;;;;6.90;1.98;;;13.10;99.90;;;;;;5121426;27;20155;-70
2023/04/24 11:30:06;;;;;;;4.63;1.75;;;13.10;99.90;;;;;;5123903;28;20112;-71
2023/04/24 11:32:36;;;;;;;4.15;1.85;;;12.90;99.90;;;;;;5118687;28;20020;-71
2023/04/24 11:35:06;;;;;;;6.82;1.45;;;12.90;99.90;;;;;;5127291;27;20056;-70
2023/04/24 11:37:42;;;;;;;8.98;2.58;;;12.90;99.90;;;;;;5122660;28;20502;-70
2023/04/24 11:40:10;;;;;;;7.28;1.98;;;12.90;99.90;;;;;;5121673;28;20032;-70
2023/04/24 11:42:40;;;;;;;4.00;1.45;;;12.80;99.90;;;;;;5122312;28;20073;-71
2023/04/24 11:45:18;;;;;;;6.28;1.90;;;12.80;99.90;;;;;;5121691;28;20028;-71
2023/04/24 11:47:45;;;;;;;6.50;2.03;;;12.90;99.90;;;;;;5122102;28;20084;-70
2023/04/24 11:50:17;;;;;;;7.00;2.22;;;12.90;99.90;;;;;;5115871;27;20031;-70
2023/04/24 11:52:45;;;;;;;3.28;1.60;;;12.90;99.90;;;;;;5115951;28;20027;-69
2023/04/24 11:55:14;;;;;;;9.93;1.77;;;12.80;99.90;;;;;;5126738;27;20027;-70
2023/04/24 11:57:44;;;;;;;8.88;2.03;;;12.70;99.90;;;;;;5127826;27;20026;-70
2023/04/24 12:00:16;;;;;;;8.85;1.80;;;12.80;99.90;;;;;;5125034;27;20016;-70
2023/04/24 12:02:42;;;;;;;4.85;1.38;;;12.80;99.90;;;;;;5125887;27;20475;-69
2023/04/24 12:05:08;;;;;;;5.28;1.58;;;12.80;99.90;;;;;;5126589;27;20011;-69
2023/04/24 12:07:44;;;;;;;6.43;1.80;;;12.60;99.90;;;;;;5119491;27;20039;-70
2023/04/24 12:10:10;;;;;;;5.03;1.80;;;12.50;99.90;;;;;;5122415;27;20562;-69
2023/04/24 12:12:36;;;;;;;4.18;1.80;;;12.50;99.90;;;;;;5125211;27;20028;-69
2023/04/24 12:15:07;;;;;;;6.93;1.77;;;12.50;99.90;;;;;;5125709;27;20087;-70
2023/04/24 12:17:34;;;;;;;7.72;2.35;;;12.50;99.90;;;;;;5125161;27;20043;-70
2023/04/24 12:20:06;;;;;;;5.28;2.00;;;12.50;99.90;;;;;;5122773;27;20440;-69
2023/04/24 12:22:47;;;;;;;9.90;2.28;;;12.50;99.90;;;;;;5125885;27;20019;-69
2023/04/24 12:25:15;;;;;;;19.98;5.03;;;12.50;99.90;;;;;;5127871;27;20019;-69
2023/04/24 12:27:41;;;;;;;6.28;2.17;;;12.40;99.90;;;;;;5127928;27;20038;-70
2023/04/24 12:30:15;;;;;;;7.70;2.50;;;12.50;99.90;;;;;;5128698;27;20533;-70
2023/04/24 12:32:42;;;;;;;6.57;1.70;;;12.50;99.90;;;;;;5122551;27;20019;-70
2023/04/24 12:35:09;;;;;;;6.43;1.50;;;12.50;99.90;;;;;;5120207;27;20047;-70